Weather at Waterford Airport

Public forecast

Using degrees Celsius for public forecast. Weather courtesy of forecast.io.

Current aviation weather report (METAR) for Waterford Airport

2023/01/28 18:30 (retrieved 1 hour ago)

EIWF 281830Z VRB03KT 9999 FEW004 BKN025 07/06 Q1032

Closest aviation forecast (TAF) to Waterford Airport

Closest forecast is Cork Airport, 55.9 nm (103.5 km) WSW.

2023/01/28 18:11 (retrieved 1 hour ago)

TAF EICK 281700Z 2818/2918 VRB03KT 9999 FEW008 BKN018 TEMPO 2818/2821 4000 -RADZ BKN008 PROB30 TEMPO 2818/2821 2000 BKN003 PROB30 TEMPO 2821/2906 3000 BR BKN005 BECMG 2910/2912 26010KT TEMPO 2910/2913 4000 -RADZ BKN007